Potrero (157, 448) Station Data

Red Flag Warning: No
Fire Weather Zone: 250
SDGE Region: Mountain Empire
Lat/Lon: 32.604/-116.607

Observations

Time Wind Speed/Gust Temp(F) RH Fuel Moist Fuel Temp(F) Dewpt(F) Tmax(F) Tmin(F) Accum Precip 10-min Precip SL Press(mb)
6/27 5:00pm 270 12 G 17 88° 10% - - 24° 93.4° 76.3° - - -
6/27 4:50pm 279 12 G 18 89° 10% - - 24° 93.4° 76.3° - - -
6/27 4:40pm 284 13 G 18 89° 10% - - 25° 93.4° 76.3° - - -
6/27 4:30pm 285 14 G 20 89° 9% - - 24° 93.4° 76.3° - - -
6/27 4:20pm 282 14 G 22 90° 10% - - 25° 93.4° 76.3° - - -
6/27 4:10pm 284 13 G 20 90° 10% - - 25° 93.4° 76.3° - - -
6/27 4:00pm 274 12 G 20 91° 9% - - 25° 93.4° 76.3° - - -
6/27 3:50pm 280 12 G 19 91° 9% - - 24° 93.4° 76.3° - - -
6/27 3:40pm 283 14 G 23 90° 9% - - 24° 93.4° 76.3° - - -
6/27 3:30pm 283 15 G 22 90° 9% - - 23° 93.4° 76.3° - - -
6/27 3:20pm 284 14 G 20 90° 9% - - 23° 93.4° 76.3° - - -
6/27 3:10pm 284 14 G 21 91° 8% - - 22° 93.4° 76.3° - - -
6/27 3:00pm 272 13 G 21 91° 8% - - 22° 93.4° 76.3° - - -
6/27 2:50pm 271 14 G 21 91° 8% - - 20° 93.4° 76.3° - - -
6/27 2:40pm 269 14 G 21 92° 8% - - 22° 93.4° 76.3° - - -
6/27 2:30pm 267 14 G 23 91° 8% - - 22° 93.4° 76.3° - - -
6/27 2:20pm 270 12 G 23 92° 9% - - 24° 93.4° 76.3° - - -
6/27 2:10pm 282 14 G 22 91° 9% - - 25° 93° 76.3° - - -
6/27 2:00pm 278 13 G 24 91° 10% - - 26° 93° 76.3° - - -
6/27 1:50pm 285 13 G 21 91° 10% - - 26° 93° 76.3° - - -
6/27 1:40pm 283 15 G 24 91° 10% - - 27° 93° 76.3° - - -
6/27 1:30pm 280 13 G 19 91° 10% - - 26° 93° 76.3° - - -
6/27 1:20pm 275 12 G 21 92° 10% - - 27° 93° 76.3° - - -
6/27 1:10pm 278 12 G 22 91° 9% - - 26° 92.5° 76.3° - - -
6/27 1:00pm 275 14 G 23 91° 9% - - 25° 92.5° 76.3° - - -
6/27 12:50pm 269 13 G 22 91° 9% - - 26° 92.5° 76.3° - - -
6/27 12:40pm 269 14 G 22 91° 9% - - 24° 92.5° 76.3° - - -
6/27 12:30pm 274 13 G 20 91° 9% - - 24° 92.5° 76.3° - - -
6/27 12:20pm 273 12 G 23 92° 9% - - 25° 92.5° 76.3° - - -
6/27 12:10pm 275 14 G 21 91° 9% - - 24° 91.9° 76.3° - - -
6/27 12:00pm 268 11 G 19 91° 9% - - 24° 91.9° 76.3° - - -
6/27 11:50am 270 13 G 20 91° 9% - - 24° 91.3° 76.3° - - -
6/27 11:40am 268 13 G 19 91° 9% - - 24° 91.3° 76.3° - - -
6/27 11:30am 269 11 G 24 91° 9% - - 24° 91.3° 76.3° - - -
6/27 11:20am 289 13 G 23 90° 9% - - 23° 90.1° 76.3° - - -
6/27 11:10am 286 11 G 18 89° 9% - - 23° 90.1° 76.3° - - -
6/27 11:00am 279 9 G 19 89° 9% - - 23° 90.1° 76.3° - - -
6/27 10:50am 285 9 G 15 88° 9% - - 23° 89.1° 76.3° - - -
6/27 10:40am 263 8 G 15 88° 10% - - 23° 88.6° 76.3° - - -
6/27 10:30am 292 9 G 17 87° 10% - - 23° 88.1° 76.3° - - -
6/27 10:20am 293 9 G 14 87° 9% - - 23° 88.1° 76.3° - - -
6/27 10:10am 284 9 G 14 88° 9% - - 23° 88.1° 76.3° - - -
6/27 10:00am 276 8 G 13 87° 10% - - 23° 88.1° 76.3° - - -
6/27 9:50am 257 6 G 11 87° 10% - - 24° 88° 76.3° - - -
6/27 9:40am 281 5 G 10 87° 10% - - 23° 87.7° 76.3° - - -
6/27 9:30am 303 8 G 13 86° 9% - - 21° 86.2° 76.3° - - -
6/27 9:20am 301 8 G 14 85° 9% - - 21° 85.9° 76.3° - - -
6/27 9:10am 296 10 G 14 85° 9% - - 21° 85.7° 76.3° - - -
6/27 8:50am 299 7 G 11 85° 10% - - 22° 85.3° 76.3° - - -
6/27 8:40am 299 6 G 10 84° 11% - - 23° 85° 76.3° - - -
6/27 8:30am 310 7 G 10 84° 11% - - 23° 84.2° 76.3° - - -
6/27 8:20am 310 6 G 9 83° 12% - - 24° 83.5° 76.3° - - -
6/27 8:10am 310 6 G 10 82° 12% - - 25° 83.1° 76.3° - - -
6/27 8:00am 307 5 G 6 82° 12% - - 25° 83.1° 76.3° - - -
6/27 7:50am 305 1 G 6 82° 14% - - 28° 83.1° 76.3° - - -
6/27 7:40am 142 1 G 3 79° 14% - - 27° 81.7° 76.3° - - -
6/27 7:30am 143 2 G 3 79° 15% - - 27° 81.7° 76.3° - - -
6/27 7:20am 66 1 G 3 81° 14% - - 27° 81.7° 76.3° - - -
6/27 7:10am 358 3 G 4 80° 13% - - 25° 80.2° 76.3° - - -
6/27 7:00am 356 4 G 5 79° 12% - - 23° 80.2° 76.3° - - -
6/27 6:50am 352 5 G 7 79° 12% - - 22° 80.2° 76.3° - - -
6/27 6:40am 353 5 G 7 79° 11% - - 21° 80.2° 76.3° - - -
6/27 6:30am 360 5 G 6 79° 11% - - 21° 80.2° 76.3° - - -
6/27 6:20am 1 4 G 4 79° 11% - - 20° 80.2° 76.3° - - -
6/27 6:10am 2 4 G 4 79° 11% - - 20° 80.2° 76.3° - - -
6/27 6:00am 15 3 G 4 77° 12% - - 20° 80.2° 76.3° - - -
6/27 5:50am 64 1 G 3 77° 12% - - 20° 80.2° 76.3° - - -
6/27 5:40am 90 1 G 2 77° 12% - - 20° 80.2° 76.3° - - -
6/27 5:30am 79 2 G 3 77° 12% - - 20° 80.2° 76.3° - - -
6/27 5:20am 82 1 G 2 77° 12% - - 20° 80.2° 76.3° - - -
6/27 5:10am 87 1 G 2 77° 12% - - 20° 80.2° 76.3° - - -
6/27 5:00am 96 1 G 2 77° 12% - - 20° 80.2° 76.4° - - -
6/27 4:50am 334 0 G 2 79° 11% - - 20° 80.2° 76.8° - - -
6/27 4:40am 350 2 G 3 79° 11% - - 20° 80.2° 76.8° - - -
6/27 4:30am 356 4 G 5 79° 11% - - 21° 80.2° 76.8° - - -
6/27 4:20am 5 4 G 5 79° 11% - - 21° 80.2° 76.8° - - -
6/27 4:10am 16 5 G 5 79° 12% - - 21° 80.2° 76.8° - - -
6/27 4:00am 13 5 G 6 79° 11% - - 21° 80.2° 76.8° - - -
6/27 3:50am 1 5 G 6 79° 11% - - 21° 80.2° 76.8° - - -
6/27 3:40am 353 6 G 8 79° 11% - - 21° 80.2° 76.8° - - -
6/27 3:30am 359 6 G 7 79° 11% - - 21° 80.2° 76.8° - - -
6/27 3:20am 359 6 G 7 78° 11% - - 21° 80.2° 76.8° - - -
6/27 3:10am 360 6 G 7 78° 12% - - 20° 80.2° 76.8° - - -
6/27 3:00am 2 7 G 8 78° 11% - - 20° 80.2° 76.8° - - -
6/27 2:50am 4 6 G 7 78° 11% - - 20° 80.2° 76.8° - - -
6/27 2:40am 5 6 G 7 78° 11% - - 19° 80.2° 76.8° - - -
6/27 2:30am 0 6 G 8 77° 11% - - 19° 80.2° 76.8° - - -
6/27 2:20am 358 7 G 9 77° 11% - - 18° 80.2° 76.8° - - -
6/27 2:10am 1 7 G 9 78° 10% - - 18° 80.2° 77.2° - - -
6/27 2:00am 3 7 G 9 79° 10% - - 17° 80.2° 77.7° - - -
6/27 1:50am 4 7 G 11 79° 10% - - 17° 80.2° 77.7° - - -
6/27 1:40am 4 7 G 11 79° 10% - - 17° 80.2° 77.7° - - -
6/27 1:30am 6 6 G 10 79° 9% - - 16° 80.2° 77.7° - - -
6/27 1:20am 5 7 G 8 79° 9% - - 16° 80.2° 77.7° - - -
6/27 1:10am 9 6 G 8 78° 10% - - 16° 80.2° 77.7° - - -
6/27 1:00am 358 5 G 11 79° 10% - - 17° 80.2° 78.2° - - -
6/27 12:50am 357 6 G 11 79° 9% - - 17° 80.2° 78.8° - - -
6/27 12:40am 357 6 G 9 80° 9% - - 17° 80.2° 78.8° - - -
6/27 12:30am 8 5 G 8 79° 10% - - 18° 80.1° 78.8° - - -
6/27 12:20am 13 5 G 8 79° 10% - - 19° 80.1° 78.8° - - -
6/27 12:10am 13 5 G 10 80° 10% - - 19° 80.1° 79° - - -
6/27 12:00am 19 5 G 8 79° 11% - - 19° 98.9° 76.8° - - -
6/26 11:50pm 23 6 G 9 78° 11% - - 19° 98.9° 76.8° - - -
6/26 11:40pm 358 5 G 8 78° 11% - - 20° 98.9° 76.8° - - -
6/26 11:30pm 322 7 G 11 77° 12% - - 21° 98.9° 76.8° - - -
6/26 11:20pm 314 8 G 12 78° 12% - - 22° 98.9° 76.8° - - -
6/26 11:10pm 314 8 G 11 78° 13% - - 22° 98.9° 76.8° - - -
6/26 11:00pm 319 9 G 12 79° 12% - - 23° 98.9° 76.8° - - -
6/26 10:50pm 326 9 G 12 79° 13% - - 23° 98.9° 76.8° - - -
6/26 10:40pm 334 9 G 11 78° 14% - - 24° 98.9° 76.8° - - -
6/26 10:30pm 340 9 G 10 77° 14% - - 25° 98.9° 76.8° - - -
6/26 10:20pm 343 9 G 10 77° 15% - - 26° 98.9° 76.8° - - -
6/26 10:10pm 345 8 G 10 77° 15% - - 26° 98.9° 76.8° - - -
6/26 10:00pm 343 8 G 9 77° 16% - - 28° 98.9° 76.8° - - -
6/26 9:50pm 335 6 G 8 77° 17% - - 29° 98.9° 77° - - -
6/26 9:40pm 336 6 G 7 78° 18% - - 31° 98.9° 77.1° - - -
6/26 9:30pm 343 6 G 7 79° 18% - - 31° 98.9° 77.7° - - -
6/26 9:20pm 357 3 G 6 79° 16% - - 29° 98.9° 77.7° - - -
6/26 9:10pm 355 1 G 3 80° 15% - - 27° 98.9° 77.7° - - -
6/26 9:00pm 350 0 G 1 80° 14% - - 26° 98.9° 77.7° - - -
6/26 8:50pm 147 1 G 2 81° 13% - - 26° 98.9° 77.7° - - -
6/26 8:40pm 312 3 G 8 82° 12% - - 25° 98.9° 77.7° - - -
6/26 8:30pm 326 5 G 10 83° 12% - - 25° 98.9° 77.7° - - -
6/26 8:20pm 327 7 G 11 84° 12% - - 25° 98.9° 77.7° - - -
6/26 8:10pm 332 8 G 12 84° 12% - - 26° 98.9° 77.7° - - -
6/26 8:00pm 330 8 G 14 85° 12% - - 26° 98.9° 77.7° - - -
6/26 7:50pm 322 9 G 14 86° 12% - - 27° 98.9° 77.7° - - -
6/26 7:40pm 325 10 G 15 86° 12% - - 27° 98.9° 77.7° - - -
6/26 7:30pm 318 10 G 15 88° 11% - - 27° 98.9° 77.7° - - -
6/26 7:20pm 312 10 G 15 89° 10% - - 26° 98.9° 77.7° - - -
6/26 7:10pm 307 12 G 17 89° 10% - - 25° 98.9° 77.7° - - -
6/26 7:00pm 308 13 G 20 90° 9% - - 25° 98.9° 77.7° - - -
6/26 6:50pm 307 13 G 19 90° 9% - - 25° 98.9° 77.7° - - -
6/26 6:40pm 306 14 G 18 91° 10% - - 26° 98.9° 77.7° - - -
6/26 6:30pm 304 12 G 19 92° 10% - - 27° 98.9° 77.7° - - -
6/26 6:20pm 310 13 G 21 92° 10% - - 27° 98.9° 77.7° - - -
6/26 6:10pm 312 14 G 20 93° 9% - - 27° 98.9° 77.7° - - -
6/26 6:00pm 319 15 G 22 93° 9% - - 26° 98.9° 77.7° - - -
6/26 5:50pm 318 17 G 28 93° 9% - - 25° 98.9° 77.7° - - -
6/26 5:40pm 317 15 G 23 94° 9% - - 27° 98.9° 77.7° - - -
6/26 5:30pm 318 17 G 28 94° 9% - - 27° 98.9° 77.7° - - -
6/26 5:20pm 316 17 G 26 94° 9% - - 27° 98.9° 77.7° - - -
6/26 5:10pm 312 17 G 28 95° 10% - - 29° 98.9° 77.7° - - -
6/26 5:00pm 310 19 G 30 95° 10% - - 29° 98.9° 77.7° - - -
6/26 4:50pm 310 18 G 28 96° 10% - - 29° 98.9° 77.7° - - -
6/26 4:40pm 314 17 G 27 96° 10% - - 30° 98.9° 77.7° - - -
6/26 4:30pm 310 19 G 29 96° 9% - - 29° 98.9° 77.7° - - -
6/26 4:20pm 317 17 G 28 97° 10% - - 30° 98.9° 77.7° - - -
6/26 4:10pm 318 18 G 27 97° 9% - - 30° 98.9° 77.7° - - -
6/26 4:00pm 308 17 G 25 97° 10% - - 30° 98.9° 77.7° - - -
6/26 3:50pm 315 16 G 24 97° 10% - - 31° 98.9° 77.7° - - -
6/26 3:40pm 306 16 G 25 97° 10% - - 30° 98.9° 77.7° - - -
6/26 3:30pm 304 17 G 27 97° 9% - - 30° 98.9° 77.7° - - -
6/26 3:20pm 301 18 G 28 97° 9% - - 30° 98.9° 77.7° - - -
6/26 3:10pm 303 17 G 27 97° 9% - - 30° 98.9° 77.7° - - -
6/26 3:00pm 302 16 G 26 97° 9% - - 30° 98.9° 77.7° - - -
6/26 2:50pm 299 17 G 25 97° 10% - - 30° 98.6° 77.7° - - -
6/26 2:40pm 307 15 G 25 97° 10% - - 30° 98.6° 77.7° - - -
6/26 2:30pm 315 17 G 26 97° 9% - - 29° 98.6° 77.7° - - -
6/26 2:20pm 300 17 G 27 97° 9% - - 29° 98.6° 77.7° - - -
6/26 2:10pm 307 15 G 28 97° 9% - - 29° 98.6° 77.7° - - -
6/26 2:00pm 315 15 G 25 97° 9% - - 29° 98.6° 77.7° - - -
6/26 1:50pm 303 17 G 22 96° 9% - - 28° 98.6° 77.7° - - -
6/26 1:40pm 305 17 G 26 97° 9% - - 28° 98.6° 77.7° - - -
6/26 1:30pm 307 15 G 24 98° 9% - - 28° 98.6° 77.7° - - -
6/26 1:20pm 313 16 G 24 97° 9% - - 28° 98.2° 77.7° - - -
6/26 1:10pm 302 16 G 23 97° 9% - - 29° 98.2° 77.7° - - -
6/26 1:00pm 305 16 G 25 97° 9% - - 29° 98.2° 77.7° - - -
6/26 12:50pm 323 13 G 21 97° 9% - - 29° 98.2° 77.7° - - -
6/26 12:40pm 320 14 G 22 96° 9% - - 29° 98° 77.7° - - -
6/26 12:30pm 319 14 G 20 96° 9% - - 29° 98° 77.7° - - -
6/26 12:20pm 320 13 G 19 96° 9% - - 28° 98° 77.7° - - -
6/26 12:10pm 324 15 G 22 97° 9% - - 28° 98° 77.7° - - -
6/26 12:00pm 322 13 G 22 97° 9% - - 28° 98° 77.7° - - -
6/26 11:50am 323 15 G 21 97° 9% - - 27° 97.5° 77.7° - - -
6/26 11:40am 322 13 G 23 96° 9% - - 28° 97.5° 77.7° - - -
6/26 11:30am 312 13 G 20 96° 9% - - 28° 97.4° 77.7° - - -
6/26 11:20am 307 15 G 22 96° 9% - - 29° 97.2° 77.7° - - -
6/26 11:10am 284 9 G 16 95° 11% - - 32° 95.8° 77.7° - - -
6/26 11:00am 289 10 G 16 95° 11% - - 32° 95.8° 77.7° - - -
6/26 10:50am 299 7 G 17 95° 11% - - 31° 95.3° 77.7° - - -
6/26 10:40am 291 7 G 15 94° 11% - - 31° 94.6° 77.7° - - -
6/26 10:30am 291 9 G 15 93° 11% - - 31° 94° 77.7° - - -
6/26 10:20am 273 8 G 14 92° 12% - - 32° 92.4° 77.7° - - -
6/26 10:10am 262 6 G 11 91° 13% - - 33° 92.2° 77.7° - - -
6/26 10:00am 263 8 G 12 91° 13% - - 33° 92.2° 77.7° - - -
6/26 9:50am 292 7 G 11 92° 13% - - 33° 92.2° 77.7° - - -
6/26 9:40am 295 7 G 11 92° 12% - - 33° 92.2° 77.7° - - -
6/26 9:30am 301 6 G 9 92° 13% - - 33° 91.8° 77.7° - - -
6/26 9:20am 289 4 G 7 91° 13% - - 33° 91.8° 77.7° - - -
6/26 9:10am 298 4 G 6 90° 13% - - 32° 91.5° 77.7° - - -
6/26 9:00am 296 3 G 6 90° 12% - - 31° 91.5° 77.7° - - -
6/26 8:50am 314 4 G 6 90° 12% - - 30° 91.5° 77.7° - - -
6/26 8:40am 304 3 G 6 91° 12% - - 32° 91.5° 77.7° - - -
6/26 8:30am 125 1 G 4 90° 14% - - 34° 91.5° 77.7° - - -
6/26 8:20am 146 3 G 4 88° 14% - - 33° 88.1° 77.7° - - -
6/26 8:10am 149 2 G 5 86° 15% - - 34° 86.7° 77.7° - - -
6/26 8:00am 154 2 G 4 84° 16% - - 33° 85.6° 77.7° - - -
6/26 7:50am 151 2 G 3 83° 15% - - 31° 84.3° 77.7° - - -
6/26 7:40am 147 4 G 6 83° 16% - - 32° 84.3° 77.7° - - -
6/26 7:30am 148 3 G 4 82° 17% - - 33° 84.3° 77.7° - - -
6/26 7:20am 138 3 G 3 80° 16% - - 30° 84.3° 77.7° - - -
6/26 7:10am 145 4 G 6 80° 17% - - 32° 84.3° 77.7° - - -
6/26 7:00am 144 3 G 5 80° 17% - - 32° 84.3° 77.7° - - -
6/26 6:50am 145 4 G 5 82° 15% - - 30° 84.3° 77.7° - - -
6/26 6:40am 104 2 G 4 83° 14% - - 29° 84.3° 77.7° - - -
6/26 6:30am 141 1 G 2 82° 14% - - 28° 84.3° 77.7° - - -
6/26 6:20am 119 1 G 2 80° 15% - - 28° 84.3° 77.7° - - -
6/26 6:10am 128 2 G 2 79° 16% - - 29° 84.3° 77.7° - - -
6/26 6:00am 124 3 G 5 78° 16% - - 29° 84.3° 77.7° - - -